PENO2: Grand Lake O' The Cherokees, Pensacola Dm

Data processed at Wed May 22 2019 23:50


All information presented herein is the property of the government of the United States of America and may be revised or deleted at any time without prior notice.
Dissemination of this information without the expressed written consent of the Public Affairs Office, Tulsa District U.S. Army Corps of Engineers is strictly prohibited.
These data are gathered electronically and, as presented, have not undergone any form of quality control. These data are not guaranteed to be valid or correct.
Go to home page.
Go to station list.
Go to home page.

Upstream stations:

Downstream station:
Previous Day
Next Day
Current Day
    
SHEF ID:       PENO2     Pensacola (Grand Lake)
STATION TYPE:  RESERVOIR
Flood Pool:  Bottom =   743.41, Top =   755.00

               PRECIP ELEVATION   STORAGE    INFLOW   RELEASE  AIR-TEMP  WIND-DIRWIND-SPEED REL-HUMID SOLAR-RAD   VOLTAGE  BAT-LOAD
                   in        ft     ac-ft       cfs       cfs         F       deg       mph         %      W/m2      volt      volt
              Ccp-Rev   Ccp-Rev   Ccp-Rev  Rev-Regi  Rev-Regi   Ccp-Rev   Ccp-Rev   Ccp-Rev   Ccp-Rev   Ccp-Rev   Ccp-Rev   Ccp-Rev
(US/Central)
05/22 00:00      0.00    754.78   2008830    150450    108110     66.74    167.19      5.05     73.56      0.00     12.69     12.49
05/22 01:00      0.00    754.78   2008830    149012    124977     66.74    170.17      5.66     72.78      0.00     12.68     12.49
05/22 02:00      0.00    754.81   2010585    147500    142061     66.33    172.53      4.80     71.83      0.00     12.67     12.41
05/22 03:00      0.00    754.83   2011755    147275    142157     67.01    168.08      5.18     66.69      0.00     12.66     12.41
05/22 04:00      0.00    754.85   2012925    150747    142333     67.10    170.66      4.41     63.13      0.00     12.65     12.41
05/22 05:00      0.00    754.84   2012340    143706    142378     66.34    158.79      3.21     62.04      0.00     12.65     12.41
05/22 06:00      0.00    754.84   2012340    143699    142335     64.76    154.64      2.98     64.90      0.00     12.65     12.41
05/22 07:00      0.00    754.82   2011170    142268    142247     64.54    178.41      2.41     64.44     12.05     12.64     12.41
05/22 08:00      0.00    754.84   2012340    143693    142125     64.29    181.47      1.21     69.01     80.92     12.64     12.41
05/22 09:00      0.00    754.85   2012925    140837    142255     65.07    182.06      2.01     72.86    142.18     13.42     12.41
05/22 10:00      0.00    754.85   2012925    143669    142422     67.24    168.55      2.80     71.77    166.88     13.47     13.13
05/22 11:00      0.00    754.83   2011755    135140    142215     71.04    158.05      4.35     75.73    264.09     13.52     13.05
05/22 12:00      0.00    754.83   2011755    132205    142247     74.73    165.96      5.16     76.66    572.99     13.53     12.97
05/22 13:00      0.00    754.79   2009415    133507    141953     79.07    167.01      5.87     72.67    841.85     14.61     12.97
05/22 14:00      0.00    754.78   2008830    134851    141736     81.09    154.88      6.19     68.38    512.69     12.89     12.73
05/22 15:00      0.00    754.79   2009415    131916    141856     83.32    154.24      7.01     63.80    743.53     12.86     12.65
05/22 16:00      0.00    754.78   2008830    138940    141858     84.00    160.22      7.34     62.81    611.06     12.84     12.65
05/22 17:00      0.00    754.76   2007660    140329    141726     84.47    157.43      5.82     64.06    500.37     12.83     12.57
05/22 18:00      0.00    754.77   2008245    133190    141682     83.53    161.91      5.35     67.79    238.05     12.82     12.57
05/22 19:00      0.00    754.77   2008245    135910    141603     81.66    168.46      3.79     72.00      9.69     12.81     12.57
05/22 20:00      0.00    754.73   2005905    144362    141554     80.92    155.57      2.22     74.61      9.72     12.80     12.57
05/22 21:00      1.18    754.74   2006490    142947    141297     75.69    246.27      5.69     93.57      0.04     12.79     12.57
05/22 22:00      0.77    754.78   2008830    148593    141516     70.77    155.30      3.61     97.52      0.00     12.78     12.57
05/22 23:00      0.00    754.78   2008830    148654    141689     70.86     51.43      1.96     95.32      0.00     12.77     12.57